Time;durP1;ratioP1;P1;durP2;ratioP2;P2;SDS_P1;SDS_P2;PMS_P1;PMS_P2;Temp;Humidity;BMP_temperature;BMP_pressure;BME280_temperature;BME280_humidity;BME280_pressure;Samples;Min_cycle;Max_cycle;Signal;HPM_P1;HPM_P2
2021/09/20 00:01:53;;;;;;;6.15;4.20;;;;;;;10.81;69.20;101583.25;1782982;80;21035;-83
2021/09/20 00:04:22;;;;;;;6.03;3.92;;;;;;;10.81;69.32;101577.06;1782223;80;21137;-82
2021/09/20 00:06:47;;;;;;;8.55;4.00;;;;;;;10.81;69.35;101586.28;1784474;80;21054;-83
2021/09/20 00:09:14;;;;;;;8.30;3.77;;;;;;;10.77;69.44;101583.06;1786324;80;22463;-83
2021/09/20 00:11:44;;;;;;;7.75;4.25;;;;;;;10.77;69.54;101584.38;1786082;80;21097;-82
2021/09/20 00:14:10;;;;;;;7.90;3.67;;;;;;;10.77;69.64;101588.33;1785396;80;21069;-83
2021/09/20 00:16:38;;;;;;;8.00;4.50;;;;;;;10.69;69.75;101569.19;1758591;80;21524;-83
2021/09/20 00:19:07;;;;;;;13.93;4.60;;;;;;;10.77;69.76;101584.38;1759443;80;21379;-83
2021/09/20 00:21:33;;;;;;;6.97;4.22;;;;;;;10.77;69.86;101583.95;1786272;80;22585;-83
2021/09/20 00:24:00;;;;;;;7.67;4.28;;;;;;;10.80;69.99;101574.86;1786226;80;21081;-83
2021/09/20 00:26:27;;;;;;;7.10;4.47;;;;;;;10.80;70.02;101576.61;1786201;80;21064;-83
2021/09/20 00:28:54;;;;;;;5.45;4.20;;;;;;;10.79;70.03;101582.30;1786332;80;21061;-83
2021/09/20 00:31:21;;;;;;;6.08;4.17;;;;;;;10.76;69.96;101577.34;1786504;80;21584;-83
2021/09/20 00:33:47;;;;;;;5.25;4.45;;;;;;;10.74;70.12;101569.37;1786530;80;21738;-83
2021/09/20 00:36:14;;;;;;;8.55;4.70;;;;;;;10.75;70.18;101573.78;1786425;80;21881;-82
2021/09/20 00:38:41;;;;;;;6.75;4.05;;;;;;;10.76;70.21;101570.75;1786342;80;21045;-82
2021/09/20 00:41:07;;;;;;;5.30;4.33;;;;;;;10.80;70.28;101571.34;1786191;80;21033;-83
2021/09/20 00:43:34;;;;;;;6.80;3.95;;;;;;;10.82;70.28;101570.97;1786326;80;21006;-83
2021/09/20 00:46:06;;;;;;;4.70;3.72;;;;;;;10.85;70.23;101567.15;1786341;80;21844;-83
2021/09/20 00:48:33;;;;;;;4.40;3.70;;;;;;;10.86;70.13;101568.92;1786212;80;21089;-83
2021/09/20 00:51:00;;;;;;;7.58;3.83;;;;;;;10.88;70.05;101566.81;1786174;80;21026;-83
2021/09/20 00:53:26;;;;;;;5.25;3.80;;;;;;;10.89;69.93;101569.94;1786104;80;21836;-83
2021/09/20 00:55:59;;;;;;;4.00;3.60;;;;;;;10.92;69.95;101572.20;1758746;80;21007;-83
2021/09/20 00:58:27;;;;;;;5.50;3.95;;;;;;;10.93;69.79;101572.69;1784906;80;21861;-82
2021/09/20 01:00:52;;;;;;;5.97;4.03;;;;;;;10.91;69.75;101571.31;1785442;80;21061;-83
2021/09/20 01:03:22;;;;;;;7.75;3.95;;;;;;;10.89;69.72;101572.56;1786017;80;21238;-83
2021/09/20 01:05:49;;;;;;;4.30;3.67;;;;;;;10.88;69.78;101569.88;1786324;80;21058;-83
2021/09/20 01:08:16;;;;;;;6.40;3.55;;;;;;;10.90;69.81;101569.50;1786766;80;21053;-83
2021/09/20 01:10:44;;;;;;;8.53;3.52;;;;;;;10.88;69.81;101563.28;1786652;80;21777;-83
2021/09/20 01:13:10;;;;;;;12.03;4.00;;;;;;;10.89;69.93;101561.14;1761992;80;21101;-83
2021/09/20 01:15:40;;;;;;;8.15;4.12;;;;;;;10.91;69.97;101561.20;1786563;80;21571;-84
2021/09/20 01:18:07;;;;;;;6.53;4.50;;;;;;;10.89;70.01;101550.18;1787039;80;21061;-84
2021/09/20 01:20:34;;;;;;;4.92;3.92;;;;;;;10.87;69.92;101561.08;1787175;80;21069;-83
2021/09/20 01:23:02;;;;;;;8.95;4.12;;;;;;;10.82;70.00;101561.33;1787277;80;21222;-83
2021/09/20 01:25:29;;;;;;;6.35;3.50;;;;;;;10.79;69.98;101558.60;1786828;80;21058;-82
2021/09/20 01:27:56;;;;;;;6.55;4.05;;;;;;;10.77;70.15;101561.56;1786815;80;20991;-82
2021/09/20 01:30:23;;;;;;;3.98;3.30;;;;;;;10.77;70.19;101553.66;1786755;80;21128;-83
2021/09/20 01:32:50;;;;;;;6.12;4.05;;;;;;;10.77;70.24;101555.41;1762326;80;21057;-83
2021/09/20 01:35:18;;;;;;;11.57;4.30;;;;;;;10.73;70.22;101547.81;1786786;80;22541;-83
2021/09/20 01:37:45;;;;;;;4.83;4.05;;;;;;;10.70;70.28;101549.92;1786808;80;21054;-83
2021/09/20 01:40:14;;;;;;;8.60;3.95;;;;;;;10.71;70.42;101546.86;1786771;80;21061;-83
2021/09/20 01:42:43;;;;;;;6.75;3.80;;;;;;;10.73;70.48;101548.24;1786730;80;21528;-83
2021/09/20 01:45:11;;;;;;;4.37;3.87;;;;;;;10.74;70.51;101553.58;1762856;80;21077;-83
2021/09/20 01:47:38;;;;;;;4.65;3.25;;;;;;;10.76;70.49;101551.89;1786716;80;21751;-83
2021/09/20 01:50:06;;;;;;;5.12;3.90;;;;;;;10.76;70.39;101554.95;1786734;80;21065;-84
2021/09/20 01:52:35;;;;;;;6.70;3.60;;;;;;;10.73;70.34;101553.51;1761830;80;21098;-84
2021/09/20 01:55:01;;;;;;;4.25;3.58;;;;;;;10.70;70.36;101547.30;1786955;80;21038;-83
2021/09/20 01:57:28;;;;;;;6.25;3.60;;;;;;;10.66;70.29;101540.52;1786796;80;21096;-84
2021/09/20 01:59:58;;;;;;;7.58;4.12;;;;;;;10.63;70.30;101538.68;1786878;80;21817;-84
2021/09/20 02:02:23;;;;;;;5.47;4.33;;;;;;;10.63;70.42;101537.80;1786404;80;21124;-84
2021/09/20 02:04:50;;;;;;;6.25;4.40;;;;;;;10.63;70.35;101538.68;1786982;80;21098;-85
2021/09/20 02:07:17;;;;;;;5.85;3.75;;;;;;;10.62;70.29;101533.35;1786212;80;21011;-84
2021/09/20 02:09:46;;;;;;;6.22;4.33;;;;;;;10.60;70.23;101533.29;1759542;80;21805;-83
2021/09/20 02:12:13;;;;;;;4.97;4.05;;;;;;;10.60;70.30;101530.66;1786040;80;21842;-83
2021/09/20 02:14:44;;;;;;;6.72;4.10;;;;;;;10.60;70.27;101530.66;1786284;80;22063;-83
2021/09/20 02:17:10;;;;;;;8.33;4.40;;;;;;;10.57;70.16;101520.03;1784295;80;21590;-83
2021/09/20 02:19:40;;;;;;;5.08;3.90;;;;;;;10.54;70.22;101527.80;1785828;80;21065;-83
2021/09/20 02:22:09;;;;;;;4.65;4.15;;;;;;;10.53;70.25;101529.98;1759317;80;21049;-83
2021/09/20 02:24:38;;;;;;;5.62;4.10;;;;;;;10.52;70.30;101527.28;1786360;80;21757;-83
2021/09/20 02:27:04;;;;;;;7.75;4.50;;;;;;;10.51;70.33;101527.71;1786480;80;21517;-83
2021/09/20 02:29:32;;;;;;;10.32;4.17;;;;;;;10.50;70.40;101525.91;1786355;80;21826;-83
2021/09/20 02:31:58;;;;;;;7.00;4.58;;;;;;;10.53;70.48;101526.03;1786485;80;21516;-84
2021/09/20 02:34:25;;;;;;;8.15;5.70;;;;;;;10.55;70.46;101530.93;1786413;80;21035;-84
2021/09/20 02:36:54;;;;;;;7.00;5.08;;;;;;;10.55;70.47;101532.25;1786451;80;21743;-85
2021/09/20 02:39:21;;;;;;;5.75;4.35;;;;;;;10.56;70.55;101531.39;1786361;80;21062;-83
2021/09/20 02:41:50;;;;;;;7.37;4.72;;;;;;;10.57;70.59;101529.25;1759273;80;21547;-83
2021/09/20 02:44:21;;;;;;;7.67;4.70;;;;;;;10.61;70.67;101531.15;1759335;80;21062;-83
2021/09/20 02:46:48;;;;;;;6.30;4.80;;;;;;;10.63;70.73;101530.78;1785621;80;21049;-82
2021/09/20 02:49:16;;;;;;;6.17;4.70;;;;;;;10.65;70.78;101530.41;1786406;80;21766;-82
2021/09/20 02:51:43;;;;;;;9.20;4.95;;;;;;;10.68;70.86;101526.59;1786289;80;21058;-82
2021/09/20 02:54:09;;;;;;;8.50;4.80;;;;;;;10.69;70.90;101524.42;1786387;80;21101;-83
2021/09/20 02:56:36;;;;;;;12.98;5.37;;;;;;;10.70;71.00;101524.91;1786356;80;21057;-83
2021/09/20 02:59:03;;;;;;;6.40;5.08;;;;;;;10.74;71.11;101531.62;1786434;80;21042;-84
2021/09/20 03:01:33;;;;;;;6.75;4.78;;;;;;;10.77;71.17;101529.08;1786362;80;21718;-83
2021/09/20 03:03:59;;;;;;;7.08;5.40;;;;;;;10.78;71.18;101529.14;1785910;80;21007;-83
2021/09/20 03:06:28;;;;;;;13.30;5.55;;;;;;;10.79;71.23;101535.30;1785958;80;21124;-83
2021/09/20 03:08:56;;;;;;;8.58;5.20;;;;;;;10.80;71.29;101527.45;1786109;80;21015;-83
2021/09/20 03:11:22;;;;;;;8.28;4.75;;;;;;;10.84;71.37;101529.78;1786489;80;21112;-83
2021/09/20 03:13:49;;;;;;;9.15;4.53;;;;;;;10.86;71.41;101528.98;1786035;80;21753;-83
2021/09/20 03:16:16;;;;;;;8.50;5.00;;;;;;;10.86;71.45;101522.41;1786288;80;21256;-83
2021/09/20 03:18:45;;;;;;;6.08;4.37;;;;;;;10.89;71.52;101528.22;1759384;80;21693;-83
2021/09/20 03:21:11;;;;;;;8.28;4.55;;;;;;;10.92;71.59;101521.72;1786414;80;21077;-84
2021/09/20 03:23:38;;;;;;;7.58;4.45;;;;;;;10.96;71.64;101521.02;1786294;80;20998;-83
2021/09/20 03:26:05;;;;;;;6.03;4.33;;;;;;;10.99;71.65;101518.47;1786441;80;21912;-84
2021/09/20 03:28:32;;;;;;;7.20;4.62;;;;;;;11.00;71.72;101518.05;1786349;80;21049;-83
2021/09/20 03:31:05;;;;;;;10.60;4.72;;;;;;;11.05;71.80;101515.16;1786274;80;21109;-83
2021/09/20 03:33:35;;;;;;;6.58;4.05;;;;;;;11.08;71.84;101520.12;1786568;80;21505;-83
2021/09/20 03:36:02;;;;;;;6.60;4.03;;;;;;;11.15;71.88;101520.33;1785917;80;21490;-83
2021/09/20 03:38:29;;;;;;;6.15;4.00;;;;;;;11.20;71.83;101522.70;1786505;80;22334;-83
2021/09/20 03:40:56;;;;;;;5.08;3.72;;;;;;;11.24;71.77;101515.37;1786181;80;21042;-82
2021/09/20 03:43:23;;;;;;;5.95;4.15;;;;;;;11.30;71.75;101530.11;1790996;78;21552;-83
2021/09/20 03:45:52;;;;;;;5.33;3.87;;;;;;;11.32;71.67;101531.05;1786741;79;21490;-81
2021/09/20 03:48:19;;;;;;;5.50;4.25;;;;;;;11.32;71.68;101530.13;1787254;79;21030;-82
2021/09/20 03:50:50;;;;;;;6.62;3.72;;;;;;;11.29;71.69;101533.57;1787620;79;21214;-85
2021/09/20 03:53:15;;;;;;;3.65;3.02;;;;;;;11.28;71.64;101538.39;1787105;79;21094;-85
2021/09/20 03:55:42;;;;;;;5.97;2.92;;;;;;;11.32;71.65;101531.45;1787626;80;21011;-85
2021/09/20 03:58:09;;;;;;;5.90;2.60;;;;;;;11.39;71.63;101533.06;1772065;80;21501;-85
2021/09/20 04:00:39;;;;;;;5.10;2.33;;;;;;;11.48;71.53;101545.64;1787462;79;21046;-89
2021/09/20 04:03:09;;;;;;;3.47;2.60;;;;;;;11.55;71.37;101530.50;1787576;79;22606;-85
2021/09/20 04:05:35;;;;;;;6.30;2.90;;;;;;;11.62;71.19;101531.63;1787341;79;21055;-84
2021/09/20 04:08:04;;;;;;;3.52;2.52;;;;;;;11.68;71.09;101539.72;1786887;79;20999;-87
2021/09/20 04:10:31;;;;;;;4.60;2.25;;;;;;;11.74;70.86;101541.67;1786780;80;21295;-84
2021/09/20 04:13:01;;;;;;;3.83;2.40;;;;;;;11.78;70.69;101540.92;1786921;79;21058;-85
2021/09/20 04:15:27;;;;;;;5.50;2.50;;;;;;;11.83;70.46;101551.20;1786649;79;21819;-82
2021/09/20 04:17:54;;;;;;;3.45;2.80;;;;;;;11.87;70.20;101547.81;1786701;80;20976;-82
2021/09/20 04:20:21;;;;;;;4.62;2.62;;;;;;;11.90;70.07;101549.28;1786713;80;21490;-82
2021/09/20 04:22:51;;;;;;;4.05;2.40;;;;;;;11.92;69.84;101555.50;1786715;80;21102;-83
2021/09/20 04:25:16;;;;;;;6.20;2.40;;;;;;;11.95;69.62;101561.28;1786699;79;21046;-82
2021/09/20 04:27:53;;;;;;;;;;;;;;;;;;;;;
2021/09/20 04:30:12;;;;;;;2.40;2.05;;;;;;;12.00;69.26;101567.61;1783110;79;21094;-83
2021/09/20 04:32:39;;;;;;;6.03;2.50;;;;;;;12.02;68.88;101571.20;1769184;80;21082;-83
2021/09/20 04:35:07;;;;;;;3.30;2.05;;;;;;;12.03;68.93;101558.05;1786856;80;21007;-83
2021/09/20 04:37:36;;;;;;;6.72;2.52;;;;;;;12.04;68.80;101565.55;1787081;80;21054;-82
2021/09/20 04:40:07;;;;;;;3.20;2.37;;;;;;;12.03;68.72;101561.09;1769831;80;21917;-88
2021/09/20 04:42:34;;;;;;;5.72;2.27;;;;;;;12.02;68.51;101567.23;1786826;80;20992;-86
2021/09/20 04:45:01;;;;;;;4.50;2.00;;;;;;;11.99;68.27;101577.28;1786836;80;20983;-84
2021/09/20 04:47:28;;;;;;;2.77;2.15;;;;;;;11.98;67.99;101566.23;1786885;80;21076;-85
2021/09/20 04:49:55;;;;;;;4.58;2.17;;;;;;;11.97;67.80;101563.11;1786655;80;21047;-80
2021/09/20 04:52:23;;;;;;;7.03;2.75;;;;;;;11.97;67.71;101563.55;1786644;80;21761;-83
2021/09/20 04:54:51;;;;;;;3.72;1.65;;;;;;;11.96;67.51;101572.33;1785554;79;21067;-83
2021/09/20 04:57:18;;;;;;;2.65;1.85;;;;;;;11.93;67.42;101568.25;1786850;80;21289;-83
2021/09/20 04:59:45;;;;;;;3.30;2.27;;;;;;;11.91;67.31;101581.39;1786704;79;21031;-83
2021/09/20 05:02:13;;;;;;;3.52;2.22;;;;;;;11.87;67.16;101563.21;1785903;79;21070;-83
2021/09/20 05:04:40;;;;;;;3.02;1.60;;;;;;;11.85;67.19;101571.50;1800549;79;21762;-83
2021/09/20 05:07:09;;;;;;;3.02;2.15;;;;;;;11.86;67.15;101577.66;1804497;78;21030;-84
2021/09/20 05:09:36;;;;;;;4.70;2.27;;;;;;;11.85;67.13;101574.14;1786371;80;21087;-84
2021/09/20 05:12:03;;;;;;;4.55;1.92;;;;;;;11.87;67.22;101585.64;1786428;80;21053;-84
2021/09/20 05:14:30;;;;;;;4.55;2.12;;;;;;;11.89;67.19;101593.61;1786389;79;21049;-84
2021/09/20 05:16:58;;;;;;;4.05;2.10;;;;;;;11.89;67.00;101591.40;1786334;80;21725;-84
2021/09/20 05:19:28;;;;;;;3.95;1.95;;;;;;;11.87;67.00;101577.72;1786181;80;21030;-84
2021/09/20 05:21:54;;;;;;;2.80;2.37;;;;;;;11.89;66.96;101587.44;1786260;79;20982;-84
2021/09/20 05:24:21;;;;;;;2.50;2.08;;;;;;;11.89;66.80;101597.56;1786218;80;21155;-84
2021/09/20 05:26:48;;;;;;;2.00;1.80;;;;;;;11.86;66.84;101601.01;1786203;78;21515;-84
2021/09/20 05:29:14;;;;;;;3.45;2.15;;;;;;;11.86;66.66;101604.97;1786180;80;21681;-84
2021/09/20 05:31:41;;;;;;;3.02;2.10;;;;;;;11.87;66.76;101597.50;1786241;80;21551;-84
2021/09/20 05:34:08;;;;;;;4.62;2.47;;;;;;;11.91;66.83;101601.17;1786310;80;21069;-84
2021/09/20 05:36:35;;;;;;;2.87;1.90;;;;;;;11.97;66.73;101604.02;1786026;80;20998;-84
2021/09/20 05:39:02;;;;;;;5.65;1.95;;;;;;;12.04;66.70;101623.16;1786290;79;21040;-83
2021/09/20 05:41:29;;;;;;;6.03;2.12;;;;;;;12.10;66.55;101622.90;1786154;79;21723;-84
2021/09/20 05:44:01;;;;;;;2.95;2.02;;;;;;;12.14;66.35;101615.55;1784952;79;21061;-84
2021/09/20 05:46:26;;;;;;;5.60;2.10;;;;;;;12.15;66.33;101622.20;1786382;78;21070;-84
2021/09/20 05:48:52;;;;;;;2.50;1.80;;;;;;;12.14;66.26;101623.47;1786586;80;21041;-84
2021/09/20 05:51:19;;;;;;;3.25;2.20;;;;;;;12.16;66.29;101627.97;1786686;80;21088;-83
2021/09/20 05:53:46;;;;;;;5.10;2.20;;;;;;;12.28;66.39;101628.78;1786481;78;21746;-84
2021/09/20 05:56:13;;;;;;;6.28;1.95;;;;;;;12.39;65.91;101641.02;1786597;80;21046;-84
2021/09/20 05:58:40;;;;;;;3.98;1.87;;;;;;;12.44;66.01;101635.02;1786493;79;21073;-84
2021/09/20 06:01:07;;;;;;;2.52;1.80;;;;;;;12.44;65.58;101632.39;1786717;80;21057;-84
2021/09/20 06:03:36;;;;;;;6.62;2.00;;;;;;;12.44;65.43;101646.91;1785895;78;22170;-84
2021/09/20 06:06:03;;;;;;;5.37;1.85;;;;;;;12.44;65.43;101648.23;1786615;80;21769;-84
2021/09/20 06:08:29;;;;;;;5.15;2.42;;;;;;;12.43;65.42;101644.22;1805714;78;21529;-84
2021/09/20 06:10:56;;;;;;;4.45;2.20;;;;;;;12.48;65.51;101636.42;1815346;79;20999;-85
2021/09/20 06:13:23;;;;;;;4.50;2.40;;;;;;;12.53;65.10;101663.87;1815586;79;21058;-84
2021/09/20 06:15:52;;;;;;;6.00;2.00;;;;;;;12.56;65.33;101646.82;1815706;79;21007;-84
2021/09/20 06:18:18;;;;;;;4.35;1.95;;;;;;;12.62;65.03;101662.85;1815728;79;21776;-85
2021/09/20 06:20:45;;;;;;;5.05;1.92;;;;;;;12.58;64.69;101669.78;1815616;79;21023;-85
2021/09/20 06:23:12;;;;;;;4.05;2.25;;;;;;;12.58;64.74;101655.69;1815783;79;21511;-84
2021/09/20 06:25:39;;;;;;;4.87;1.82;;;;;;;12.58;64.60;101670.21;1815738;79;20991;-84
2021/09/20 06:28:08;;;;;;;2.55;1.75;;;;;;;12.50;64.34;101662.05;1815903;78;21007;-85
2021/09/20 06:30:35;;;;;;;2.60;2.17;;;;;;;12.35;64.00;101661.53;1815546;79;21711;-85
2021/09/20 06:33:01;;;;;;;2.75;2.35;;;;;;;12.20;64.09;101677.36;1815685;78;21046;-84
2021/09/20 06:35:28;;;;;;;5.65;2.37;;;;;;;12.16;64.37;101675.48;1815684;79;21067;-84
2021/09/20 06:37:55;;;;;;;2.65;2.12;;;;;;;12.12;64.38;101669.59;1815619;79;21125;-84
2021/09/20 06:40:22;;;;;;;4.30;2.25;;;;;;;12.13;64.59;101672.72;1815867;78;21062;-84
2021/09/20 06:42:49;;;;;;;4.28;1.70;;;;;;;12.11;64.65;101678.81;1815853;79;21790;-85
2021/09/20 06:45:15;;;;;;;2.00;1.80;;;;;;;12.09;64.24;101669.52;1815698;79;21058;-85
2021/09/20 06:47:42;;;;;;;2.92;2.05;;;;;;;12.09;64.20;101660.67;1815678;78;21508;-85
2021/09/20 06:50:10;;;;;;;3.20;2.90;;;;;;;12.22;64.41;101666.87;1815708;79;20999;-85
2021/09/20 06:52:36;;;;;;;3.70;1.67;;;;;;;12.39;64.25;101658.17;1815628;79;21497;-85
2021/09/20 06:55:04;;;;;;;2.62;1.67;;;;;;;12.60;64.04;101669.40;1815510;78;21748;-85
2021/09/20 06:57:31;;;;;;;2.95;1.77;;;;;;;12.77;64.00;101670.36;1815473;78;21027;-85
2021/09/20 06:59:58;;;;;;;2.27;1.67;;;;;;;12.97;63.76;101667.89;1815194;78;21038;-85
2021/09/20 07:02:25;;;;;;;3.33;1.57;;;;;;;13.10;63.28;101673.13;1815523;79;21031;-85
2021/09/20 07:04:53;;;;;;;1.90;1.47;;;;;;;13.24;63.25;101678.80;1815262;79;21118;-85
2021/09/20 07:07:20;;;;;;;4.45;1.92;;;;;;;13.43;63.10;101678.05;1815493;79;21780;-85
2021/09/20 07:09:47;;;;;;;2.62;1.92;;;;;;;13.59;62.81;101684.23;1815163;78;21055;-85
2021/09/20 07:12:14;;;;;;;4.15;1.80;;;;;;;13.68;62.74;101677.84;1815587;78;21073;-85
2021/09/20 07:14:41;;;;;;;3.37;1.90;;;;;;;13.81;62.46;101680.39;1815451;79;21547;-85
2021/09/20 07:17:11;;;;;;;4.15;1.77;;;;;;;13.86;62.34;101680.53;1815314;79;21042;-85
2021/09/20 07:19:37;;;;;;;4.33;1.80;;;;;;;13.85;62.12;101680.05;1815370;79;21833;-85
2021/09/20 07:22:04;;;;;;;2.30;1.67;;;;;;;13.86;61.92;101692.02;1815517;79;21018;-85
2021/09/20 07:24:31;;;;;;;2.67;1.77;;;;;;;13.79;61.46;101695.34;1815308;79;21043;-85
2021/09/20 07:27:00;;;;;;;3.35;1.67;;;;;;;13.68;61.53;101703.41;1812503;79;21050;-85
2021/09/20 07:29:26;;;;;;;2.83;1.70;;;;;;;13.58;61.57;101707.56;1815609;78;21516;-85
2021/09/20 07:31:53;;;;;;;2.05;1.62;;;;;;;13.59;61.84;101715.55;1815536;78;22531;-85
2021/09/20 07:34:23;;;;;;;3.12;1.75;;;;;;;13.66;61.76;101703.37;1815427;78;21015;-85
2021/09/20 07:36:48;;;;;;;2.50;1.80;;;;;;;13.79;61.84;101722.72;1814845;79;21594;-85
2021/09/20 07:39:15;;;;;;;2.80;1.70;;;;;;;13.92;61.27;101715.09;1815751;78;21508;-85
2021/09/20 07:41:43;;;;;;;3.25;1.77;;;;;;;13.95;61.15;101739.02;1811928;78;21117;-85
2021/09/20 07:44:10;;;;;;;4.42;2.02;;;;;;;13.84;60.77;101714.01;1815514;79;21843;-85
2021/09/20 07:46:37;;;;;;;2.50;1.98;;;;;;;13.77;60.69;101727.48;1815577;79;21535;-85
2021/09/20 07:49:04;;;;;;;1.92;1.72;;;;;;;13.68;60.44;101741.34;1815643;79;21584;-85
2021/09/20 07:51:33;;;;;;;3.52;1.77;;;;;;;13.52;60.30;101731.20;1815292;79;20999;-85
2021/09/20 07:54:00;;;;;;;3.33;1.98;;;;;;;13.29;60.24;101734.05;1815447;79;21109;-85
2021/09/20 07:56:31;;;;;;;6.33;2.12;;;;;;;13.15;60.72;101736.25;1815563;79;21784;-84
2021/09/20 07:58:56;;;;;;;3.92;2.02;;;;;;;13.18;60.84;101732.83;1815544;78;21031;-85
2021/09/20 08:01:23;;;;;;;2.98;2.33;;;;;;;13.29;61.02;101736.69;1815680;79;21057;-84
2021/09/20 08:03:50;;;;;;;5.30;2.62;;;;;;;13.49;61.07;101737.72;1815573;79;21047;-84
2021/09/20 08:06:17;;;;;;;2.47;1.95;;;;;;;13.71;61.13;101732.18;1815548;78;21061;-84
2021/09/20 08:08:44;;;;;;;5.00;2.62;;;;;;;13.93;60.77;101740.73;1815223;78;21780;-85
2021/09/20 08:11:13;;;;;;;2.95;2.45;;;;;;;14.13;61.14;101741.23;1815107;79;21468;-86
2021/09/20 08:13:39;;;;;;;4.25;2.85;;;;;;;14.25;60.90;101733.62;1815418;79;21091;-85
2021/09/20 08:16:06;;;;;;;4.80;3.17;;;;;;;14.38;60.68;101745.44;1815546;78;21173;-84
2021/09/20 08:18:33;;;;;;;6.62;2.60;;;;;;;14.31;60.11;101735.53;1815414;79;20987;-84
2021/09/20 08:20:59;;;;;;;4.75;2.80;;;;;;;14.24;60.21;101747.70;1815587;79;21754;-84
2021/09/20 08:23:27;;;;;;;4.72;2.70;;;;;;;14.34;60.13;101756.38;1815302;79;21789;-84
2021/09/20 08:25:54;;;;;;;2.95;2.45;;;;;;;14.39;59.66;101764.42;1815409;78;22360;-83
2021/09/20 08:28:21;;;;;;;5.78;2.80;;;;;;;14.24;59.60;101759.63;1815471;78;21054;-84
2021/09/20 08:30:48;;;;;;;3.17;2.52;;;;;;;14.12;59.48;101764.61;1815605;78;21065;-83
2021/09/20 08:33:15;;;;;;;5.20;3.08;;;;;;;13.90;59.44;101775.03;1815488;79;22573;-83
2021/09/20 08:35:41;;;;;;;6.50;3.12;;;;;;;13.80;60.20;101776.53;1815302;78;21073;-83
2021/09/20 08:38:08;;;;;;;3.60;2.92;;;;;;;13.84;60.61;101759.00;1815305;78;21069;-84
2021/09/20 08:40:35;;;;;;;3.30;2.58;;;;;;;13.86;60.56;101768.76;1815499;79;21505;-84
2021/09/20 08:43:03;;;;;;;5.50;3.10;;;;;;;13.79;60.14;101766.79;1815039;79;21022;-84
2021/09/20 08:45:30;;;;;;;4.80;2.85;;;;;;;13.85;59.85;101767.39;1815587;78;21131;-84
2021/09/20 08:47:59;;;;;;;3.10;2.70;;;;;;;13.82;59.74;101777.47;1815611;78;21002;-84
2021/09/20 08:50:33;;;;;;;5.12;3.00;;;;;;;13.69;59.90;101767.40;1815247;78;42410;-84
2021/09/20 08:53:00;;;;;;;6.03;3.20;;;;;;;13.57;59.79;101766.20;1815167;78;21066;-84
2021/09/20 08:55:29;;;;;;;3.55;2.40;;;;;;;13.54;60.06;101800.92;1811859;79;21026;-85
2021/09/20 08:57:56;;;;;;;5.05;3.35;;;;;;;13.48;60.02;101781.80;1815372;79;21729;-85
2021/09/20 09:00:23;;;;;;;3.95;3.00;;;;;;;13.42;60.01;101765.75;1815484;79;21681;-85
2021/09/20 09:02:49;;;;;;;3.58;3.25;;;;;;;13.45;60.31;101767.58;1815355;78;21023;-85
2021/09/20 09:05:32;;;;;;;7.42;2.98;;;;;;;13.36;60.24;101777.05;1815429;79;21061;-85
2021/09/20 09:08:00;;;;;;;4.90;3.45;;;;;;;13.37;60.55;101777.50;1814970;78;21635;-85
2021/09/20 09:10:36;;;;;;;4.30;3.25;;;;;;;13.52;60.80;101778.81;1819064;78;21868;-85
2021/09/20 09:13:07;;;;;;;5.95;3.52;;;;;;;13.65;60.38;101780.96;1819329;78;21062;-86
2021/09/20 09:15:35;;;;;;;6.35;2.90;;;;;;;13.76;60.61;101791.42;1819276;78;21534;-85
2021/09/20 09:18:05;;;;;;;5.55;3.45;;;;;;;13.88;60.22;101765.73;1818906;78;21050;-84
2021/09/20 09:20:35;;;;;;;3.77;3.15;;;;;;;13.91;59.94;101770.23;1819225;78;21002;-84
2021/09/20 09:23:06;;;;;;;3.55;2.77;;;;;;;13.86;60.13;101765.23;1819296;78;21747;-84
2021/09/20 09:25:42;;;;;;;6.15;2.80;;;;;;;13.87;60.27;101773.22;1818762;78;21615;-84
2021/09/20 09:28:17;;;;;;;3.50;2.92;;;;;;;14.07;60.68;101767.12;1819408;78;21034;-85
2021/09/20 09:30:47;;;;;;;3.55;2.80;;;;;;;14.34;60.64;101808.42;1819176;78;21062;-84
2021/09/20 09:33:24;;;;;;;9.53;3.10;;;;;;;14.41;59.53;101779.03;1819120;78;21093;-84
2021/09/20 09:35:54;;;;;;;4.15;3.02;;;;;;;14.46;59.77;101771.67;1816530;78;21760;-84
2021/09/20 09:38:21;;;;;;;3.20;2.90;;;;;;;14.53;59.59;101770.98;1819026;78;21078;-84
2021/09/20 09:40:54;;;;;;;3.72;3.22;;;;;;;14.64;59.54;101780.97;1819298;78;21478;-84
2021/09/20 09:43:36;;;;;;;3.98;3.58;;;;;;;14.69;59.33;101774.03;1819781;78;22099;-84
2021/09/20 09:46:20;;;;;;;5.22;2.90;;;;;;;14.72;59.30;101780.31;1818923;78;21586;-85
2021/09/20 09:48:47;;;;;;;3.60;2.95;;;;;;;14.62;58.76;101780.95;1818006;78;22438;-84
2021/09/20 09:51:13;;;;;;;4.87;2.90;;;;;;;14.49;58.84;101787.66;1819384;78;21007;-84
2021/09/20 09:53:42;;;;;;;4.65;3.15;;;;;;;14.54;59.12;101778.48;1819366;78;21630;-84
2021/09/20 09:56:22;;;;;;;5.67;3.20;;;;;;;14.78;59.23;101781.77;1819344;78;21202;-84
2021/09/20 09:58:58;;;;;;;3.20;2.62;;;;;;;14.81;58.61;101781.38;1819176;78;21015;-84
2021/09/20 10:01:39;;;;;;;5.58;2.65;;;;;;;14.70;57.87;101778.05;1819348;78;21733;-84
2021/09/20 10:04:15;;;;;;;4.85;2.47;;;;;;;14.68;57.43;101781.09;1819079;78;21077;-84
2021/09/20 10:06:46;;;;;;;3.00;2.30;;;;;;;14.57;57.42;101799.37;1819247;78;21065;-84
2021/09/20 10:09:27;;;;;;;3.60;3.25;;;;;;;14.52;57.55;101769.17;1817796;78;21014;-84
2021/09/20 10:11:56;;;;;;;5.00;2.98;;;;;;;14.46;57.65;101773.00;1815468;78;21057;-84
2021/09/20 10:14:24;;;;;;;3.83;2.85;;;;;;;14.61;57.97;101772.52;1815583;78;21772;-86
2021/09/20 10:16:54;;;;;;;3.15;2.80;;;;;;;14.69;57.72;101772.27;1815602;79;21022;-86
2021/09/20 10:19:21;;;;;;;4.40;3.65;;;;;;;14.83;57.45;101779.66;1815653;79;21050;-85
2021/09/20 10:21:49;;;;;;;3.47;2.35;;;;;;;14.91;57.78;101772.36;1815535;79;21046;-85
2021/09/20 10:24:16;;;;;;;4.72;2.87;;;;;;;15.01;57.16;101768.16;1815579;78;21322;-85
2021/09/20 10:26:46;;;;;;;3.90;2.92;;;;;;;14.88;56.84;101776.25;1815526;78;21698;-85
2021/09/20 10:29:15;;;;;;;5.12;2.87;;;;;;;14.76;56.62;101773.33;1815603;78;21034;-84
2021/09/20 10:31:43;;;;;;;5.75;2.50;;;;;;;14.78;56.96;101790.16;1786086;79;21034;-85
2021/09/20 10:34:24;;;;;;;2.92;2.70;;;;;;;14.83;57.03;101769.97;1815631;79;21611;-84
2021/09/20 10:37:01;;;;;;;5.53;2.77;;;;;;;14.86;56.57;101779.30;1815535;79;21180;-85
2021/09/20 10:39:57;;;;;;;5.90;3.10;;;;;;;14.75;56.61;101768.87;1815680;78;21736;-85
2021/09/20 10:42:50;;;;;;;4.60;3.20;;;;;;;14.63;56.75;101768.59;1815689;79;21049;-85
2021/09/20 10:45:43;;;;;;;3.35;2.85;;;;;;;14.64;57.32;101773.02;1815571;79;21540;-85
2021/09/20 10:48:32;;;;;;;5.23;3.67;;;;;;;14.66;57.32;101771.30;1815852;79;21295;-85
2021/09/20 10:51:21;;;;;;;6.08;3.25;;;;;;;14.70;57.52;101775.84;1815619;78;21097;-84
2021/09/20 10:53:48;;;;;;;4.92;3.65;;;;;;;14.62;57.38;101770.76;1815540;78;21740;-84
2021/09/20 10:56:18;;;;;;;5.05;3.72;;;;;;;14.60;57.45;101769.83;1815555;79;21066;-84
2021/09/20 10:58:56;;;;;;;4.22;3.83;;;;;;;14.43;57.30;101758.78;1815613;78;21042;-84
2021/09/20 11:01:28;;;;;;;5.12;3.52;;;;;;;14.13;57.15;101758.05;1813590;79;21168;-84
2021/09/20 11:04:00;;;;;;;6.60;3.70;;;;;;;13.97;57.50;101768.63;1815444;79;21038;-84
2021/09/20 11:06:33;;;;;;;4.22;3.22;;;;;;;13.93;58.06;101755.28;1804154;79;22595;-84
2021/09/20 11:09:08;;;;;;;3.45;3.15;;;;;;;14.12;58.34;101747.41;1815717;78;21524;-85
2021/09/20 11:11:42;;;;;;;8.10;3.20;;;;;;;14.41;57.97;101748.58;1818364;78;21041;-84
2021/09/20 11:14:21;;;;;;;3.95;3.00;;;;;;;14.53;57.17;101748.89;1818626;78;21485;-84
2021/09/20 11:16:52;;;;;;;6.87;3.25;;;;;;;14.67;56.18;101750.58;1818563;78;21045;-84
2021/09/20 11:19:33;;;;;;;3.20;2.90;;;;;;;14.67;55.64;101755.87;1818629;78;21758;-84
2021/09/20 11:22:13;;;;;;;4.67;2.85;;;;;;;14.66;55.43;101752.75;1818666;78;21540;-84
2021/09/20 11:24:55;;;;;;;6.12;3.20;;;;;;;14.74;55.42;101769.31;1818239;78;20995;-83
2021/09/20 11:27:44;;;;;;;7.62;3.37;;;;;;;14.66;55.43;101761.62;1818585;78;21046;-84
2021/09/20 11:30:25;;;;;;;4.28;2.62;;;;;;;14.75;55.53;101763.57;1817801;78;21105;-84
2021/09/20 11:33:07;;;;;;;4.58;2.98;;;;;;;14.95;55.51;101749.47;1818596;78;21895;-84
2021/09/20 11:35:31;;;;;;;3.87;3.05;;;;;;;15.01;54.78;101756.23;1817462;78;21151;-83